createdAt,value
2023-12-08T00:02:22.638Z,13.50
2023-12-08T00:04:49.546Z,14.73
2023-12-08T00:07:16.462Z,12.95
2023-12-08T00:09:43.574Z,16.17
2023-12-08T00:12:10.410Z,14.57
2023-12-08T00:14:37.347Z,14.18
2023-12-08T00:17:04.346Z,13.18
2023-12-08T00:19:31.264Z,13.95
2023-12-08T00:21:58.413Z,13.70
2023-12-08T00:24:25.823Z,15.75
2023-12-08T00:26:52.738Z,14.43
2023-12-08T00:29:22.516Z,14.95
2023-12-08T00:31:49.331Z,15.15
2023-12-08T00:34:16.347Z,13.25
2023-12-08T00:36:43.313Z,13.40
2023-12-08T00:39:10.464Z,13.90
2023-12-08T00:41:37.348Z,11.13
2023-12-08T00:44:05.049Z,16.13
2023-12-08T00:46:32.435Z,12.15
2023-12-08T00:48:59.434Z,12.55
2023-12-08T00:51:26.565Z,14.57
2023-12-08T00:53:53.564Z,13.02
2023-12-08T00:56:20.437Z,12.00
2023-12-08T00:58:47.272Z,13.05
2023-12-08T01:01:14.159Z,13.43
2023-12-08T01:03:41.275Z,11.52
2023-12-08T01:06:08.396Z,12.40
2023-12-08T01:08:35.401Z,10.95
2023-12-08T01:11:02.258Z,13.23
2023-12-08T01:13:29.129Z,13.60
2023-12-08T01:15:55.989Z,12.32
2023-12-08T01:18:23.100Z,14.95
2023-12-08T01:20:50.195Z,13.68
2023-12-08T01:23:17.002Z,12.15
2023-12-08T01:25:43.820Z,11.77
2023-12-08T01:28:10.674Z,12.82
2023-12-08T01:30:37.548Z,16.02
2023-12-08T01:33:04.872Z,10.95
2023-12-08T01:35:31.883Z,10.60
2023-12-08T01:37:58.726Z,13.30
2023-12-08T01:40:25.803Z,11.68
2023-12-08T01:42:52.731Z,11.57
2023-12-08T01:45:19.556Z,13.27
2023-12-08T01:47:48.667Z,12.00
2023-12-08T01:50:16.026Z,11.35
2023-12-08T01:52:43.595Z,11.13
2023-12-08T01:55:11.502Z,13.98
2023-12-08T01:57:38.501Z,10.82
2023-12-08T02:00:07.359Z,10.02
2023-12-08T02:02:37.724Z,11.98
2023-12-08T02:05:05.374Z,11.77
2023-12-08T02:07:33.164Z,11.43
2023-12-08T02:10:00.140Z,10.10
2023-12-08T02:12:27.244Z,14.10
2023-12-08T02:14:54.288Z,10.50
2023-12-08T02:17:37.132Z,8.07
2023-12-08T02:20:04.734Z,13.35
2023-12-08T02:22:31.561Z,13.82
2023-12-08T02:24:58.369Z,9.75
2023-12-08T02:27:29.146Z,11.40
2023-12-08T02:29:56.568Z,11.10
2023-12-08T02:32:33.177Z,11.68
2023-12-08T02:35:02.891Z,11.65
2023-12-08T02:37:34.143Z,10.13
2023-12-08T02:40:02.413Z,12.52
2023-12-08T02:42:29.303Z,8.73
2023-12-08T02:44:56.188Z,12.02
2023-12-08T02:47:23.264Z,10.60
2023-12-08T02:49:50.198Z,10.82
2023-12-08T02:52:17.076Z,14.50
2023-12-08T02:54:43.904Z,10.65
2023-12-08T02:57:10.750Z,9.02
2023-12-08T02:59:37.697Z,11.35
2023-12-08T03:02:04.642Z,12.57
2023-12-08T03:04:31.550Z,10.10
2023-12-08T03:06:58.457Z,12.50
2023-12-08T03:09:25.278Z,13.50
2023-12-08T03:11:52.208Z,9.15
2023-12-08T03:14:19.091Z,9.60
2023-12-08T03:16:47.646Z,12.38
2023-12-08T03:19:14.557Z,12.43
2023-12-08T03:21:41.456Z,13.50
2023-12-08T03:24:08.294Z,11.63
2023-12-08T03:26:35.160Z,10.73
2023-12-08T03:29:01.993Z,11.82
2023-12-08T03:31:31.089Z,7.53
2023-12-08T03:33:58.120Z,11.32
2023-12-08T03:36:25.442Z,11.77
2023-12-08T03:38:52.487Z,11.07
2023-12-08T03:41:19.324Z,11.05
2023-12-08T03:43:46.431Z,10.13
2023-12-08T03:46:13.257Z,10.63
2023-12-08T03:48:40.297Z,12.65
2023-12-08T03:51:07.596Z,10.73
2023-12-08T03:53:34.683Z,11.82
2023-12-08T03:56:01.683Z,10.85
2023-12-08T03:58:29.483Z,10.40
2023-12-08T04:00:56.396Z,8.45
2023-12-08T04:03:23.882Z,14.32
2023-12-08T04:05:51.048Z,11.90
2023-12-08T04:08:18.344Z,13.88
2023-12-08T04:10:45.391Z,11.45
2023-12-08T04:13:12.235Z,12.93
2023-12-08T04:15:39.094Z,10.77
2023-12-08T04:18:06.860Z,12.55
2023-12-08T04:20:34.184Z,12.73
2023-12-08T04:23:01.126Z,9.75
2023-12-08T04:25:28.354Z,12.05
2023-12-08T04:27:55.164Z,10.60
2023-12-08T04:30:22.042Z,10.23
2023-12-08T04:32:49.016Z,13.18
2023-12-08T04:35:15.875Z,12.25
2023-12-08T04:37:42.750Z,10.93
2023-12-08T04:40:10.271Z,13.30
2023-12-08T04:42:40.300Z,13.35
2023-12-08T04:45:09.152Z,12.50
2023-12-08T04:47:36.279Z,12.10
2023-12-08T04:50:03.806Z,13.05
2023-12-08T04:52:30.762Z,13.57
2023-12-08T04:54:57.668Z,11.00
2023-12-08T04:57:24.720Z,12.90
2023-12-08T04:59:51.965Z,14.10
2023-12-08T05:02:18.797Z,11.50
2023-12-08T05:04:45.597Z,11.48
2023-12-08T05:07:12.518Z,11.52
2023-12-08T05:09:39.346Z,10.25
2023-12-08T05:12:06.507Z,10.15
2023-12-08T05:14:33.457Z,12.05
2023-12-08T05:17:00.293Z,9.02
2023-12-08T05:19:27.534Z,10.48
2023-12-08T05:21:54.513Z,11.80
2023-12-08T05:24:21.507Z,9.43
2023-12-08T05:26:49.004Z,10.60
2023-12-08T05:29:15.937Z,13.10
2023-12-08T05:31:43.596Z,11.50
2023-12-08T05:34:10.599Z,10.55
2023-12-08T05:36:37.540Z,10.45
2023-12-08T05:39:04.650Z,9.27
2023-12-08T05:41:31.455Z,11.25
2023-12-08T05:43:58.318Z,10.10
2023-12-08T05:46:25.498Z,10.30
2023-12-08T05:48:52.490Z,10.15
2023-12-08T05:51:19.496Z,8.85
2023-12-08T05:53:46.366Z,9.45
2023-12-08T05:56:13.253Z,10.93
2023-12-08T05:58:40.130Z,9.65
2023-12-08T06:01:07.124Z,11.50
2023-12-08T06:03:34.073Z,10.55
2023-12-08T06:06:01.355Z,10.13
2023-12-08T06:08:28.332Z,10.50
2023-12-08T06:10:55.142Z,10.93
2023-12-08T06:13:21.960Z,11.73
2023-12-08T06:15:48.875Z,9.13
2023-12-08T06:18:15.894Z,9.25
2023-12-08T06:20:42.919Z,10.30
2023-12-08T06:23:09.764Z,10.48
2023-12-08T06:25:36.578Z,10.55
2023-12-08T06:28:03.941Z,10.30
2023-12-08T06:30:30.799Z,11.95
2023-12-08T06:32:57.917Z,12.48
2023-12-08T06:35:24.912Z,10.50
2023-12-08T06:37:52.022Z,11.00
2023-12-08T06:40:18.976Z,14.23
2023-12-08T06:42:45.826Z,14.32
2023-12-08T06:45:12.747Z,11.55
2023-12-08T06:47:39.916Z,12.25
2023-12-08T06:50:07.413Z,9.35
2023-12-08T06:52:34.298Z,9.13
2023-12-08T06:55:01.201Z,10.55
2023-12-08T06:57:28.432Z,12.00
2023-12-08T06:59:55.422Z,12.00
2023-12-08T07:02:22.611Z,11.68
2023-12-08T07:04:49.498Z,9.07
2023-12-08T07:07:16.848Z,10.05
2023-12-08T07:09:43.791Z,9.60
2023-12-08T07:12:10.704Z,8.73
2023-12-08T07:14:37.673Z,10.07
2023-12-08T07:17:04.748Z,10.65
2023-12-08T07:19:32.206Z,8.32
2023-12-08T07:21:59.639Z,9.90
2023-12-08T07:24:26.651Z,9.18
2023-12-08T07:26:56.202Z,9.73
2023-12-08T07:29:24.589Z,9.77
2023-12-08T07:31:51.437Z,11.50
2023-12-08T07:34:18.389Z,9.32
2023-12-08T07:36:45.446Z,13.50
2023-12-08T07:39:12.326Z,11.25
2023-12-08T07:41:39.250Z,9.35
2023-12-08T07:44:06.125Z,8.90
2023-12-08T07:46:33.205Z,8.60
2023-12-08T07:49:00.155Z,10.63
2023-12-08T07:51:27.166Z,9.13
2023-12-08T07:53:54.070Z,10.75
2023-12-08T07:56:23.284Z,9.80
2023-12-08T07:58:50.130Z,8.93
2023-12-08T08:01:16.992Z,10.57
2023-12-08T08:03:43.968Z,9.18
2023-12-08T08:06:11.084Z,8.38
2023-12-08T08:08:38.397Z,10.20
2023-12-08T08:11:05.534Z,10.57
2023-12-08T08:13:32.564Z,11.60
2023-12-08T08:15:59.448Z,11.70
2023-12-08T08:18:26.432Z,11.02
2023-12-08T08:20:53.378Z,9.90
2023-12-08T08:23:20.220Z,11.18
2023-12-08T08:25:47.019Z,10.73
2023-12-08T08:28:13.873Z,13.30
2023-12-08T08:30:45.227Z,8.32
2023-12-08T08:33:12.810Z,12.20
2023-12-08T08:35:40.966Z,11.05
2023-12-08T08:38:08.317Z,10.25
2023-12-08T08:40:35.102Z,11.27
2023-12-08T08:43:01.978Z,10.52
2023-12-08T08:45:30.042Z,10.73
2023-12-08T08:47:57.018Z,10.98
2023-12-08T08:50:23.979Z,11.63
2023-12-08T08:52:50.843Z,10.27
2023-12-08T08:55:17.804Z,9.55
2023-12-08T08:57:45.703Z,10.38
2023-12-08T09:00:14.136Z,9.45
2023-12-08T09:02:42.728Z,10.60
2023-12-08T09:05:09.685Z,9.07
2023-12-08T09:07:37.853Z,10.18
2023-12-08T09:10:05.176Z,8.50
2023-12-08T09:12:32.275Z,8.35
2023-12-08T09:14:59.114Z,10.73
2023-12-08T09:17:25.978Z,9.30
2023-12-08T09:19:52.889Z,9.32
2023-12-08T09:22:19.734Z,9.85
2023-12-08T09:24:49.016Z,10.70
2023-12-08T09:27:15.844Z,10.52
2023-12-08T09:29:43.277Z,10.13
2023-12-08T09:32:10.248Z,9.25
2023-12-08T09:34:37.301Z,10.20
2023-12-08T09:37:26.231Z,10.57
2023-12-08T09:39:51.133Z,10.48
2023-12-08T09:42:31.176Z,10.00
2023-12-08T09:44:58.279Z,10.50
2023-12-08T09:47:29.096Z,10.57
2023-12-08T09:49:57.187Z,9.00
2023-12-08T09:52:24.132Z,9.55
2023-12-08T09:54:51.263Z,10.85
2023-12-08T09:57:21.406Z,10.95
2023-12-08T09:59:49.031Z,9.50
2023-12-08T10:02:15.939Z,11.15
2023-12-08T10:04:42.891Z,9.85
2023-12-08T10:07:12.008Z,11.02
2023-12-08T10:09:38.980Z,8.85
2023-12-08T10:12:06.398Z,10.40
2023-12-08T10:14:33.559Z,9.18
2023-12-08T10:17:02.483Z,9.85
2023-12-08T10:19:29.608Z,9.95
2023-12-08T10:22:03.565Z,10.35
2023-12-08T10:24:31.881Z,11.15
2023-12-08T10:27:02.427Z,10.77
2023-12-08T10:29:33.180Z,10.18
2023-12-08T10:32:00.221Z,8.48
2023-12-08T10:34:27.809Z,10.70
2023-12-08T10:36:58.229Z,8.60
2023-12-08T10:39:29.006Z,11.45
2023-12-08T10:41:56.974Z,9.18
2023-12-08T10:44:26.465Z,10.50
2023-12-08T10:46:54.236Z,9.05
2023-12-08T10:49:21.626Z,9.70
2023-12-08T10:51:49.370Z,12.77
2023-12-08T10:54:18.627Z,11.20
2023-12-08T10:56:49.687Z,11.65
2023-12-08T10:59:22.762Z,12.25
2023-12-08T11:01:52.776Z,10.82
2023-12-08T11:04:25.362Z,9.65
2023-12-08T11:07:04.375Z,10.43
2023-12-08T11:09:38.962Z,9.75
2023-12-08T11:12:07.992Z,9.30
2023-12-08T11:14:39.809Z,8.57
2023-12-08T11:17:18.023Z,9.07
2023-12-08T11:19:46.173Z,10.27
2023-12-08T11:22:13.479Z,9.93
2023-12-08T11:24:42.367Z,8.93
2023-12-08T11:27:19.796Z,10.05
2023-12-08T11:30:36.901Z,10.88
2023-12-08T11:33:29.946Z,12.30
2023-12-08T11:36:15.448Z,14.52
2023-12-08T11:38:42.435Z,13.45
2023-12-08T11:41:13.756Z,10.27
2023-12-08T11:43:44.674Z,11.52
2023-12-08T11:46:12.158Z,10.30
2023-12-08T11:48:39.247Z,11.82
2023-12-08T11:51:07.506Z,10.07
2023-12-08T11:53:49.709Z,9.27
2023-12-08T11:56:49.941Z,11.48
2023-12-08T11:59:23.669Z,10.13
2023-12-08T12:01:50.594Z,10.93
2023-12-08T12:04:19.274Z,11.35
2023-12-08T12:06:51.034Z,13.90
2023-12-08T12:09:18.566Z,10.75
2023-12-08T12:11:49.521Z,10.50
2023-12-08T12:14:20.559Z,11.95
2023-12-08T12:16:48.724Z,10.70
2023-12-08T12:19:16.019Z,10.10
2023-12-08T12:21:44.568Z,11.05
2023-12-08T12:24:11.439Z,11.80
2023-12-08T12:26:38.275Z,10.05
2023-12-08T12:29:05.972Z,10.45
2023-12-08T12:31:32.807Z,11.00
2023-12-08T12:33:59.724Z,9.88
2023-12-08T12:36:26.662Z,10.57
2023-12-08T12:38:53.790Z,14.40
2023-12-08T12:41:24.725Z,11.82
2023-12-08T12:43:58.561Z,11.57
2023-12-08T12:46:28.414Z,12.80
2023-12-08T12:48:56.522Z,11.13
2023-12-08T12:51:40.200Z,10.43
2023-12-08T12:56:34.855Z,12.48
2023-12-08T12:59:09.259Z,13.35
2023-12-08T13:01:36.911Z,11.40
2023-12-08T13:04:04.893Z,13.52
2023-12-08T13:06:37.712Z,12.18
2023-12-08T13:09:06.831Z,11.63
2023-12-08T13:11:33.755Z,14.90
2023-12-08T13:14:00.730Z,13.20
2023-12-08T13:16:27.627Z,14.32
2023-12-08T13:18:54.627Z,15.38
2023-12-08T13:21:22.290Z,17.95
2023-12-08T13:23:49.266Z,16.42
2023-12-08T13:26:17.298Z,16.45
2023-12-08T13:28:44.274Z,15.95
2023-12-08T13:31:11.128Z,14.23
2023-12-08T13:33:38.148Z,13.02
2023-12-08T13:36:05.602Z,13.70
2023-12-08T13:38:32.534Z,11.80
2023-12-08T13:40:59.388Z,12.10
2023-12-08T13:43:26.184Z,11.32
2023-12-08T13:45:53.068Z,11.77
2023-12-08T13:48:22.706Z,13.68
2023-12-08T13:50:55.591Z,13.30
2023-12-08T13:53:28.698Z,11.90
2023-12-08T13:55:55.884Z,11.60
2023-12-08T13:58:22.708Z,13.73
2023-12-08T14:00:49.591Z,15.82
2023-12-08T14:03:16.602Z,12.50
2023-12-08T14:05:43.722Z,13.75
2023-12-08T14:08:11.179Z,15.25
2023-12-08T14:10:38.035Z,14.50
2023-12-08T14:13:06.375Z,15.02
2023-12-08T14:15:33.525Z,13.95
2023-12-08T14:18:00.509Z,13.75
2023-12-08T14:20:27.420Z,13.00
2023-12-08T14:22:54.480Z,13.70
2023-12-08T14:25:21.430Z,12.07
2023-12-08T14:27:48.269Z,13.77
2023-12-08T14:30:15.216Z,13.07
2023-12-08T14:32:42.251Z,14.30
2023-12-08T14:35:18.625Z,15.40
2023-12-08T14:37:50.289Z,13.07
2023-12-08T14:40:18.280Z,13.25
2023-12-08T14:42:45.149Z,12.57
2023-12-08T14:45:12.148Z,13.07
2023-12-08T14:47:40.091Z,13.45
2023-12-08T14:50:10.520Z,12.50
2023-12-08T14:52:38.501Z,13.82
2023-12-08T14:55:13.672Z,12.48
2023-12-08T14:57:42.779Z,16.90
2023-12-08T15:00:12.927Z,15.30
2023-12-08T15:05:08.448Z,13.98
2023-12-08T15:07:35.311Z,16.58
2023-12-08T15:10:02.382Z,19.20
2023-12-08T15:12:29.256Z,13.43
2023-12-08T15:14:56.163Z,14.20
2023-12-08T15:17:22.981Z,12.35
2023-12-08T15:19:49.948Z,12.02
2023-12-08T15:22:16.893Z,13.48
2023-12-08T15:24:44.327Z,13.38
2023-12-08T15:27:11.187Z,13.98
2023-12-08T15:29:38.053Z,13.20
2023-12-08T15:32:04.920Z,13.48
2023-12-08T15:34:31.841Z,14.68
2023-12-08T15:36:58.732Z,13.13
2023-12-08T15:39:25.622Z,12.27
2023-12-08T15:41:52.489Z,14.60
2023-12-08T15:44:19.295Z,15.02
2023-12-08T15:46:46.139Z,14.80
2023-12-08T15:49:13.141Z,13.13
2023-12-08T15:51:43.742Z,15.50
2023-12-08T15:54:11.090Z,13.90
2023-12-08T15:56:39.336Z,15.57
2023-12-08T15:59:06.766Z,16.63
2023-12-08T16:01:33.631Z,13.00
2023-12-08T16:04:01.120Z,15.63
2023-12-08T16:06:28.215Z,14.63
2023-12-08T16:08:55.153Z,15.77
2023-12-08T16:11:29.388Z,17.98
2023-12-08T16:13:56.355Z,16.05
2023-12-08T16:16:23.558Z,17.23
2023-12-08T16:18:52.232Z,13.85
2023-12-08T16:21:27.861Z,15.60
2023-12-08T16:23:55.783Z,15.07
2023-12-08T16:26:22.627Z,14.73
2023-12-08T16:28:49.824Z,15.10
2023-12-08T16:31:17.480Z,14.60
2023-12-08T16:33:48.814Z,17.83
2023-12-08T16:36:15.972Z,16.27
2023-12-08T16:38:42.863Z,16.38
2023-12-08T16:41:09.775Z,14.93
2023-12-08T16:43:37.427Z,15.68
2023-12-08T16:46:04.723Z,15.50
2023-12-08T16:48:31.631Z,16.00
2023-12-08T16:51:00.617Z,15.05
2023-12-08T16:53:29.083Z,13.98
2023-12-08T16:55:56.445Z,13.65
2023-12-08T16:58:23.266Z,16.98
2023-12-08T17:00:50.546Z,12.68
2023-12-08T17:03:17.521Z,15.40
2023-12-08T17:05:44.597Z,14.05
2023-12-08T17:08:11.589Z,16.58
2023-12-08T17:10:38.527Z,15.27
2023-12-08T17:13:05.401Z,14.80
2023-12-08T17:15:32.287Z,15.77
2023-12-08T17:17:59.490Z,17.33
2023-12-08T17:20:27.429Z,18.55
2023-12-08T17:22:54.403Z,16.40
2023-12-08T17:25:21.256Z,17.25
2023-12-08T17:27:48.166Z,19.00
2023-12-08T17:30:15.045Z,16.88
2023-12-08T17:32:41.895Z,18.58
2023-12-08T17:35:08.928Z,17.80
2023-12-08T17:37:35.961Z,18.25
2023-12-08T17:40:04.330Z,18.27
2023-12-08T17:42:31.335Z,17.50
2023-12-08T17:44:58.486Z,18.42
2023-12-08T17:47:25.352Z,18.20
2023-12-08T17:49:52.273Z,17.13
2023-12-08T17:52:22.890Z,17.48
2023-12-08T17:54:51.109Z,17.27
2023-12-08T17:57:17.986Z,18.38
2023-12-08T17:59:45.021Z,16.58
2023-12-08T18:02:11.984Z,17.00
2023-12-08T18:04:40.148Z,20.60
2023-12-08T18:07:10.617Z,20.23
2023-12-08T18:09:42.383Z,21.38
2023-12-08T18:12:09.878Z,18.45
2023-12-08T18:14:36.940Z,17.90
2023-12-08T18:17:04.208Z,21.92
2023-12-08T18:19:31.300Z,18.75
2023-12-08T18:21:58.700Z,18.98
2023-12-08T18:24:25.775Z,20.85
2023-12-08T18:26:54.373Z,18.65
2023-12-08T18:29:21.709Z,16.88
2023-12-08T18:31:49.106Z,18.73
2023-12-08T18:34:17.416Z,18.45
2023-12-08T18:36:44.327Z,15.48
2023-12-08T18:39:12.266Z,17.35
2023-12-08T18:41:39.788Z,20.17
2023-12-08T18:44:07.454Z,16.15
2023-12-08T18:46:34.595Z,16.90
2023-12-08T18:49:02.936Z,17.95
2023-12-08T18:51:30.735Z,17.40
2023-12-08T18:54:01.104Z,15.88
2023-12-08T18:56:27.977Z,16.20
2023-12-08T18:58:55.438Z,15.98
2023-12-08T19:01:25.137Z,17.27
2023-12-08T19:03:52.569Z,19.08
2023-12-08T19:06:20.623Z,18.23
2023-12-08T19:08:47.951Z,18.25
2023-12-08T19:11:15.274Z,16.05
2023-12-08T19:13:42.993Z,16.60
2023-12-08T19:16:09.908Z,17.25
2023-12-08T19:18:36.820Z,16.52
2023-12-08T19:21:03.962Z,18.67
2023-12-08T19:23:32.160Z,19.90
2023-12-08T19:26:01.080Z,19.98
2023-12-08T19:28:28.167Z,19.92
2023-12-08T19:30:55.017Z,17.05
2023-12-08T19:33:23.638Z,20.58
2023-12-08T19:35:51.070Z,17.90
2023-12-08T19:38:18.261Z,19.67
2023-12-08T19:40:46.211Z,21.48
2023-12-08T19:43:13.392Z,24.45
2023-12-08T19:45:40.792Z,20.02
2023-12-08T19:48:07.943Z,17.70
2023-12-08T19:50:35.012Z,16.02
2023-12-08T19:53:02.210Z,15.70
2023-12-08T19:55:29.140Z,14.23
2023-12-08T19:57:55.994Z,16.13
2023-12-08T20:00:22.969Z,17.17
2023-12-08T20:02:51.239Z,16.83
2023-12-08T20:05:18.110Z,14.60
2023-12-08T20:07:44.925Z,15.77
2023-12-08T20:10:11.855Z,17.70
2023-12-08T20:12:38.639Z,14.82
2023-12-08T20:15:06.447Z,14.43
2023-12-08T20:17:33.534Z,14.90
2023-12-08T20:20:00.790Z,16.08
2023-12-08T20:22:27.640Z,15.05
2023-12-08T20:24:54.533Z,15.02
2023-12-08T20:27:21.832Z,15.68
2023-12-08T20:29:49.304Z,14.50
2023-12-08T20:32:16.168Z,14.77
2023-12-08T20:34:44.085Z,15.48
2023-12-08T20:37:10.962Z,15.85
2023-12-08T20:39:37.840Z,15.60
2023-12-08T20:42:04.848Z,15.07
2023-12-08T20:44:31.731Z,14.65
2023-12-08T20:46:58.676Z,15.52
2023-12-08T20:49:25.589Z,15.77
2023-12-08T20:51:52.986Z,17.80
2023-12-08T20:54:21.693Z,15.73
2023-12-08T20:56:48.646Z,16.83
2023-12-08T20:59:15.527Z,15.23
2023-12-08T21:01:42.539Z,16.77
2023-12-08T21:04:09.878Z,16.92
2023-12-08T21:06:36.941Z,18.77
2023-12-08T21:09:14.972Z,16.35
2023-12-08T21:11:42.471Z,15.90
2023-12-08T21:14:09.793Z,15.48
2023-12-08T21:16:39.294Z,14.23
2023-12-08T21:19:06.321Z,17.45
2023-12-08T21:21:33.275Z,15.00
2023-12-08T21:24:00.412Z,14.10
2023-12-08T21:26:29.942Z,15.32
2023-12-08T21:28:56.824Z,13.95
2023-12-08T21:31:26.624Z,16.73
2023-12-08T21:33:53.589Z,14.57
2023-12-08T21:36:20.481Z,15.98
2023-12-08T21:38:47.356Z,17.10
2023-12-08T21:41:15.337Z,15.55
2023-12-08T21:43:42.254Z,17.08
2023-12-08T21:46:09.070Z,14.23
2023-12-08T21:48:36.169Z,16.83
2023-12-08T21:51:03.504Z,16.15
2023-12-08T21:53:30.377Z,13.35
2023-12-08T21:55:57.242Z,14.27
2023-12-08T21:58:24.037Z,14.02
2023-12-08T22:00:50.903Z,15.65
2023-12-08T22:03:18.021Z,17.52
2023-12-08T22:05:45.360Z,16.98
2023-12-08T22:08:12.145Z,17.48
2023-12-08T22:10:39.045Z,16.13
2023-12-08T22:13:05.877Z,15.50
2023-12-08T22:15:32.774Z,14.93
2023-12-08T22:17:59.659Z,15.18
2023-12-08T22:20:26.856Z,16.25
2023-12-08T22:22:53.642Z,14.77
2023-12-08T22:25:20.492Z,15.43
2023-12-08T22:27:47.302Z,16.88
2023-12-08T22:30:14.371Z,14.13
2023-12-08T22:32:41.305Z,14.95
2023-12-08T22:35:08.271Z,15.32
2023-12-08T22:37:35.097Z,17.00
2023-12-08T22:40:02.158Z,16.90
2023-12-08T22:42:29.184Z,14.75
2023-12-08T22:44:56.077Z,13.63
2023-12-08T22:47:22.917Z,16.13
2023-12-08T22:49:49.779Z,16.70
2023-12-08T22:52:16.736Z,15.70
2023-12-08T22:54:43.659Z,14.73
2023-12-08T22:57:10.575Z,17.00
2023-12-08T22:59:37.376Z,14.55
2023-12-08T23:02:04.178Z,16.27
2023-12-08T23:04:31.237Z,14.70
2023-12-08T23:06:58.073Z,14.85
2023-12-08T23:09:25.914Z,17.10
2023-12-08T23:11:52.939Z,15.10
2023-12-08T23:14:19.805Z,14.05
2023-12-08T23:16:46.586Z,16.52
2023-12-08T23:19:13.563Z,17.20
2023-12-08T23:21:41.516Z,15.38
2023-12-08T23:24:08.688Z,16.77
2023-12-08T23:26:35.629Z,13.95
2023-12-08T23:29:02.543Z,16.67
2023-12-08T23:31:29.371Z,16.52
2023-12-08T23:33:56.435Z,16.42
2023-12-08T23:36:23.589Z,15.05
2023-12-08T23:38:50.545Z,15.25
2023-12-08T23:41:17.382Z,16.13
2023-12-08T23:43:44.169Z,16.77
2023-12-08T23:46:11.104Z,13.70
2023-12-08T23:48:38.016Z,17.75
2023-12-08T23:51:05.454Z,16.88
2023-12-08T23:53:32.345Z,16.27
2023-12-08T23:55:59.170Z,16.52
2023-12-08T23:58:26.028Z,15.68
